Time;durP1;ratioP1;P1;durP2;ratioP2;P2;SDS_P1;SDS_P2;PMS_P1;PMS_P2;Temp;Humidity;BMP_temperature;BMP_pressure;BME280_temperature;BME280_humidity;BME280_pressure;Samples;Min_cycle;Max_cycle;Signal;HPM_P1;HPM_P2
2021/07/18 15:06:55;;;;;;;15.30;12.13;;;29.90;39.90;;;29.01;35.71;97909.38;4872563;29;20358;-37
2021/07/18 15:09:23;;;;;;;14.15;11.35;;;30.00;42.20;;;29.08;35.88;97902.78;4872528;29;20052;-37
2021/07/18 15:11:51;;;;;;;12.30;10.52;;;30.00;42.60;;;28.97;35.47;97902.78;4872928;29;20242;-37
2021/07/18 15:14:19;;;;;;;11.35;10.13;;;29.70;41.80;;;29.05;36.04;97909.63;4871692;29;20067;-38
2021/07/18 15:16:47;;;;;;;12.65;11.30;;;29.90;42.80;;;29.24;36.53;97897.03;4872717;29;20060;-37
2021/07/18 15:19:23;;;;;;;13.18;11.02;;;30.30;43.30;;;29.46;36.18;97904.13;4873921;29;20061;-38
2021/07/18 15:21:52;;;;;;;11.80;10.35;;;30.60;42.50;;;29.62;35.67;97902.16;4873790;29;20271;-38
2021/07/18 15:24:20;;;;;;;13.07;10.90;;;30.70;41.70;;;29.76;35.74;97897.78;4875874;29;20056;-38
2021/07/18 15:26:48;;;;;;;11.50;10.25;;;30.80;41.70;;;29.90;35.92;97891.69;4875480;29;20059;-38
2021/07/18 15:29:18;;;;;;;11.85;9.48;;;31.00;43.10;;;30.00;35.68;97897.94;4857093;29;20060;-39
2021/07/18 15:31:46;;;;;;;11.48;9.77;;;31.00;42.30;;;30.08;35.19;97890.22;4873830;29;20108;-38
2021/07/18 15:34:14;;;;;;;12.02;10.77;;;31.00;42.20;;;30.12;35.68;97885.81;4873818;29;20057;-38
2021/07/18 15:36:42;;;;;;;15.82;11.85;;;31.00;42.70;;;30.06;34.66;97884.19;4857334;29;20045;-38
2021/07/18 15:39:10;;;;;;;11.50;10.02;;;30.70;41.60;;;30.08;35.24;97887.47;4873955;29;20064;-38
2021/07/18 15:41:37;;;;;;;12.63;10.02;;;30.70;41.80;;;30.17;35.11;97877.56;4873049;29;20069;-37
2021/07/18 15:44:05;;;;;;;10.32;9.32;;;31.00;42.40;;;30.21;35.27;97882.19;4857953;29;20065;-37
2021/07/18 15:46:33;;;;;;;10.80;9.63;;;31.10;42.00;;;30.29;35.29;97879.97;4873042;29;20061;-37
2021/07/18 15:49:01;;;;;;;9.63;8.63;;;31.30;41.90;;;30.35;35.13;97879.66;4873314;29;20060;-37
2021/07/18 15:51:29;;;;;;;9.98;8.95;;;31.20;42.30;;;30.36;34.70;97877.72;4872800;29;20053;-38
2021/07/18 15:54:23;;;;;;;11.70;8.95;;;31.10;41.90;;;30.22;34.85;97874.75;4873986;29;20049;-38
2021/07/18 15:56:51;;;;;;;9.75;7.72;;;30.80;41.30;;;30.11;35.41;97876.75;4874233;29;20247;-37
2021/07/18 15:59:19;;;;;;;9.73;8.38;;;30.50;42.90;;;30.07;34.96;97883.09;4873959;29;20635;-37
2021/07/18 16:01:47;;;;;;;10.57;8.98;;;30.40;42.60;;;29.97;35.14;97879.31;4872485;29;20419;-37
2021/07/18 16:04:15;;;;;;;9.40;8.35;;;30.30;42.60;;;29.98;35.05;97872.69;4857501;29;20051;-37
2021/07/18 16:06:43;;;;;;;8.40;7.50;;;30.40;42.90;;;29.92;35.16;97865.59;4873476;29;20097;-37
2021/07/18 16:09:11;;;;;;;7.78;6.97;;;30.40;42.70;;;29.93;35.00;97860.94;4871893;29;20057;-37
2021/07/18 16:11:39;;;;;;;7.30;6.28;;;30.40;42.70;;;29.86;35.34;97866.72;4872006;29;20079;-37
2021/07/18 16:14:07;;;;;;;7.38;6.53;;;30.30;43.00;;;29.81;35.31;97864.00;4870870;29;20249;-37
2021/07/18 16:16:35;;;;;;;9.52;7.20;;;30.10;43.50;;;29.78;35.81;97859.91;4872857;29;20057;-37
2021/07/18 16:19:04;;;;;;;8.35;6.18;;;30.10;43.70;;;29.76;35.92;97858.53;4871774;29;20057;-37
2021/07/18 16:21:32;;;;;;;7.90;6.45;;;30.00;44.10;;;29.67;35.91;97865.69;4871738;29;20067;-37
2021/07/18 16:24:00;;;;;;;7.72;6.43;;;29.90;43.50;;;29.55;36.12;97864.06;4872253;29;20214;-37
2021/07/18 16:26:31;;;;;;;7.43;5.80;;;29.70;44.10;;;29.42;36.24;97868.22;4873447;29;20065;-37
2021/07/18 16:29:04;;;;;;;6.75;5.50;;;29.40;44.60;;;29.35;37.03;97864.97;4855790;29;20217;-37
2021/07/18 16:31:34;;;;;;;7.90;6.65;;;29.30;45.70;;;29.13;36.27;97862.53;4871981;29;20055;-37
2021/07/18 16:34:02;;;;;;;6.82;5.68;;;29.00;45.80;;;29.03;36.84;97868.00;4872778;29;20366;-37
2021/07/18 16:36:30;;;;;;;7.88;5.50;;;28.90;45.70;;;28.95;37.05;97863.06;4873732;29;20060;-37
2021/07/18 16:39:04;;;;;;;7.35;4.93;;;28.90;45.90;;;28.89;37.29;97865.00;4872614;29;20053;-36
2021/07/18 16:41:33;;;;;;;6.80;5.15;;;28.90;45.90;;;28.81;37.04;97860.88;4872071;29;20076;-37
2021/07/18 16:44:04;;;;;;;6.38;4.88;;;28.80;45.50;;;28.81;36.93;97862.81;4871446;29;20061;-36
2021/07/18 16:46:34;;;;;;;6.78;4.95;;;28.80;45.20;;;28.79;37.26;97864.97;4872885;29;20298;-37
2021/07/18 16:49:03;;;;;;;5.32;4.40;;;28.90;45.60;;;28.76;37.20;97871.84;4870232;29;20365;-36
2021/07/18 16:51:31;;;;;;;6.80;5.22;;;28.80;45.70;;;28.73;37.53;97869.66;4871531;29;20065;-36
2021/07/18 16:53:59;;;;;;;4.85;4.18;;;28.90;45.80;;;28.70;37.42;97863.91;4871156;29;20049;-37
2021/07/18 16:56:27;;;;;;;6.57;3.97;;;28.90;45.60;;;28.70;37.74;97861.97;4872322;29;20049;-37
2021/07/18 16:58:55;;;;;;;5.03;3.50;;;28.90;46.20;;;28.72;37.75;97865.25;4870934;29;20060;-37
2021/07/18 17:01:23;;;;;;;7.18;4.63;;;29.00;46.50;;;28.66;37.44;97867.19;4871552;29;20374;-37
2021/07/18 17:03:51;;;;;;;4.60;3.88;;;28.90;45.50;;;28.59;37.38;97866.63;4840883;29;20080;-36
2021/07/18 17:06:19;;;;;;;4.40;3.72;;;28.70;45.80;;;28.55;37.51;97864.72;4872073;29;20064;-36
2021/07/18 17:08:48;;;;;;;8.00;4.22;;;28.70;46.20;;;28.50;37.88;97856.44;4870251;29;20041;-36
2021/07/18 17:11:16;;;;;;;4.57;3.63;;;28.50;46.40;;;28.43;38.03;97868.50;4870566;29;20530;-36
2021/07/18 17:13:47;;;;;;;5.30;3.53;;;28.50;47.10;;;28.42;38.05;97874.22;4870379;29;20360;-38
2021/07/18 17:16:16;;;;;;;4.05;3.65;;;28.50;46.90;;;28.42;38.27;97869.59;4871666;29;20056;-37
2021/07/18 17:18:44;;;;;;;3.63;3.25;;;28.60;46.80;;;28.39;37.98;97874.78;4869856;29;20245;-37
2021/07/18 17:21:12;;;;;;;4.30;3.70;;;28.50;46.70;;;28.39;38.45;97870.13;4871149;29;20071;-37
2021/07/18 17:23:40;;;;;;;5.68;3.80;;;28.50;47.30;;;28.39;38.43;97874.78;4838515;29;20061;-38
2021/07/18 17:26:08;;;;;;;3.90;3.50;;;28.50;47.20;;;28.41;38.97;97876.16;4871506;29;20131;-37
2021/07/18 17:28:37;;;;;;;5.40;3.95;;;28.60;47.60;;;28.44;38.68;97883.00;4871422;29;20057;-38
2021/07/18 17:31:06;;;;;;;4.40;4.00;;;28.60;47.60;;;28.43;38.96;97884.09;4869334;29;20068;-37
2021/07/18 17:33:34;;;;;;;4.32;3.25;;;28.60;47.60;;;28.42;39.09;97877.81;4871418;29;20239;-38
2021/07/18 17:36:03;;;;;;;3.95;3.30;;;28.60;48.10;;;28.39;39.15;97874.78;4870895;29;20048;-38
2021/07/18 17:38:31;;;;;;;4.90;3.30;;;28.50;48.10;;;28.37;39.08;97880.53;4871073;29;20053;-37
2021/07/18 17:40:59;;;;;;;4.60;2.83;;;28.40;47.90;;;28.30;38.89;97882.69;4872046;29;20555;-39
2021/07/18 17:43:27;;;;;;;5.72;3.60;;;28.30;48.00;;;28.22;39.07;97877.75;4870141;29;20049;-37
2021/07/18 17:45:55;;;;;;;5.68;3.75;;;28.20;48.50;;;28.19;39.21;97881.88;4872397;29;20067;-37
2021/07/18 17:48:22;;;;;;;3.75;3.20;;;28.10;48.80;;;28.10;39.07;97875.28;4872535;29;20361;-37
2021/07/18 17:50:50;;;;;;;4.60;3.20;;;28.00;48.80;;;28.03;39.51;97875.53;4870850;29;20033;-38
2021/07/18 17:53:19;;;;;;;4.18;2.88;;;27.90;48.70;;;27.97;39.81;97879.31;4869694;29;20243;-37
2021/07/18 17:55:47;;;;;;;4.82;2.70;;;27.90;49.20;;;27.86;39.77;97883.91;4854644;29;20053;-38
2021/07/18 17:58:18;;;;;;;3.42;2.60;;;27.70;49.40;;;27.78;40.19;97881.72;4855499;29;20053;-38
2021/07/18 18:00:46;;;;;;;2.90;2.38;;;27.60;49.90;;;27.67;40.00;97877.28;4854227;29;20049;-38
2021/07/18 18:03:14;;;;;;;3.90;2.38;;;27.50;49.80;;;27.56;40.05;97887.31;4870931;29;20057;-38
2021/07/18 18:05:42;;;;;;;3.13;2.40;;;27.40;50.00;;;27.48;40.52;97880.44;4871472;29;20350;-38
2021/07/18 18:08:10;;;;;;;2.97;2.60;;;27.40;50.20;;;27.43;40.94;97880.44;4870216;29;20063;-38
2021/07/18 18:10:38;;;;;;;3.10;2.53;;;27.40;50.80;;;27.39;40.63;97875.75;4870230;29;20048;-38
2021/07/18 18:13:07;;;;;;;3.15;2.20;;;27.30;51.00;;;27.32;41.06;97883.34;4870898;29;20061;-38
2021/07/18 18:15:35;;;;;;;3.85;2.17;;;27.20;51.60;;;27.19;41.11;97879.16;4853617;29;20476;-38
2021/07/18 18:18:03;;;;;;;3.25;2.00;;;27.00;51.90;;;27.11;41.91;97883.19;4871014;29;20049;-38
2021/07/18 18:20:32;;;;;;;4.30;2.05;;;26.90;51.80;;;27.05;41.57;97879.59;4870316;29;20258;-38
2021/07/18 18:22:59;;;;;;;3.10;1.90;;;26.80;51.80;;;26.98;41.59;97879.00;4869162;29;20262;-38
2021/07/18 18:25:28;;;;;;;2.30;1.98;;;26.80;51.80;;;26.95;41.69;97882.28;4870539;29;20067;-38
2021/07/18 18:27:56;;;;;;;2.85;2.15;;;26.80;52.10;;;26.89;41.86;97877.84;4869423;29;20065;-36
2021/07/18 18:30:26;;;;;;;3.50;2.05;;;26.70;52.10;;;26.79;41.89;97873.13;4870422;29;20041;-38
2021/07/18 18:32:57;;;;;;;3.05;1.90;;;26.60;52.20;;;26.75;42.46;97874.72;4871251;29;20049;-38
2021/07/18 18:35:25;;;;;;;3.20;2.30;;;26.60;52.40;;;26.73;42.06;97878.81;4852843;29;20087;-38
2021/07/18 18:37:55;;;;;;;4.82;2.00;;;26.60;52.20;;;26.65;42.39;97875.47;4869800;29;20246;-38
2021/07/18 18:40:23;;;;;;;3.80;2.10;;;26.50;52.20;;;26.63;42.71;97890.47;4869780;29;20065;-38
2021/07/18 18:42:54;;;;;;;2.15;1.90;;;26.50;52.70;;;26.50;42.12;97881.59;4870406;29;20065;-38
2021/07/18 18:45:24;;;;;;;4.22;2.25;;;26.40;52.60;;;26.47;42.89;97882.09;4853979;29;20068;-38
2021/07/18 18:47:52;;;;;;;4.75;2.38;;;26.30;53.10;;;26.42;42.23;97882.03;4868846;29;20059;-38
2021/07/18 18:50:20;;;;;;;2.50;1.92;;;26.20;52.90;;;26.35;42.46;97884.16;4868535;29;20053;-36
2021/07/18 18:52:49;;;;;;;4.68;3.15;;;26.20;53.20;;;26.27;42.65;97880.00;4869658;29;20053;-36
2021/07/18 18:55:17;;;;;;;2.95;2.00;;;26.10;53.50;;;26.23;42.94;97881.59;4869730;29;20527;-38
2021/07/18 18:57:46;;;;;;;3.92;3.17;;;26.00;53.70;;;26.18;43.44;97881.53;4868776;29;20253;-38
2021/07/18 19:00:15;;;;;;;3.47;2.10;;;26.00;54.00;;;26.10;43.40;97880.09;4869298;29;20350;-38
2021/07/18 19:02:44;;;;;;;4.20;2.00;;;25.90;54.00;;;26.04;43.51;97889.28;4869037;29;20052;-38
2021/07/18 19:05:13;;;;;;;3.83;1.90;;;25.80;54.70;;;25.96;43.74;97889.75;4869515;29;20373;-38
2021/07/18 19:07:41;;;;;;;4.63;2.17;;;25.70;54.80;;;25.88;44.28;97891.00;4869042;29;20069;-38
2021/07/18 19:10:11;;;;;;;2.60;2.20;;;25.60;54.90;;;25.81;44.02;97895.81;4868947;29;20057;-38
2021/07/18 19:12:40;;;;;;;3.20;2.28;;;25.60;55.10;;;25.76;44.30;97890.28;4870470;29;20044;-38
2021/07/18 19:15:13;;;;;;;3.00;2.70;;;25.60;55.20;;;25.71;44.38;97899.22;4867212;29;20494;-38
2021/07/18 19:17:46;;;;;;;3.53;2.10;;;25.50;55.40;;;25.65;44.43;97891.22;4860831;29;20059;-38
2021/07/18 19:20:16;;;;;;;2.20;2.00;;;25.50;55.20;;;25.57;44.45;97891.66;4858010;29;20057;-38
2021/07/18 19:22:45;;;;;;;3.45;2.65;;;25.40;55.50;;;25.50;44.84;97900.03;4835135;29;20077;-38
2021/07/18 19:25:14;;;;;;;2.95;2.15;;;25.30;56.10;;;25.46;45.05;97901.63;4852678;29;20061;-37
2021/07/18 19:27:43;;;;;;;3.13;2.33;;;25.20;56.00;;;25.41;44.87;97904.25;4851173;29;20232;-37
2021/07/18 19:30:17;;;;;;;2.53;1.85;;;25.20;56.20;;;25.35;45.09;97909.63;4833821;29;20236;-38
2021/07/18 19:32:51;;;;;;;4.20;2.97;;;25.10;56.50;;;25.30;45.51;97908.72;4851469;29;20065;-38
2021/07/18 19:35:25;;;;;;;3.45;1.90;;;25.10;56.90;;;25.27;45.54;97912.78;4835096;29;20054;-37
2021/07/18 19:37:56;;;;;;;4.03;2.90;;;25.00;57.00;;;25.25;45.57;97925.00;4851094;29;20056;-38
2021/07/18 19:40:26;;;;;;;5.13;2.65;;;25.00;57.20;;;25.21;46.07;97923.84;4836959;29;20077;-38
2021/07/18 19:42:55;;;;;;;3.85;2.38;;;25.00;57.40;;;25.17;45.72;97930.84;4854509;29;20064;-38
2021/07/18 19:45:23;;;;;;;2.65;2.25;;;24.90;57.20;;;25.12;45.62;97923.41;4840316;29;20123;-37
2021/07/18 19:47:51;;;;;;;4.72;2.70;;;24.90;57.10;;;25.08;45.77;97925.81;4837877;29;20349;-38
2021/07/18 19:50:20;;;;;;;3.45;2.47;;;24.90;57.30;;;25.05;45.97;97930.94;4859521;29;20166;-38
2021/07/18 19:52:48;;;;;;;4.13;2.85;;;24.80;57.40;;;24.99;46.19;97927.31;4870663;29;20362;-38
2021/07/18 19:55:18;;;;;;;3.45;2.65;;;24.70;57.60;;;24.95;46.26;97926.97;4857925;29;20059;-38
2021/07/18 19:57:46;;;;;;;3.42;2.80;;;24.70;57.80;;;24.93;46.46;97934.56;4872869;29;20061;-38
2021/07/18 20:00:16;;;;;;;3.75;3.35;;;24.70;57.70;;;24.94;46.32;97935.38;4870869;29;20069;-38
2021/07/18 20:02:44;;;;;;;4.13;3.17;;;24.70;57.70;;;24.89;46.25;97941.59;4874235;29;20060;-37
2021/07/18 20:05:14;;;;;;;4.65;2.70;;;24.60;57.50;;;24.85;45.98;97953.19;4873019;29;20059;-37
2021/07/18 20:07:50;;;;;;;6.63;3.97;;;24.60;57.50;;;24.79;46.47;97949.56;4872740;29;20282;-37
2021/07/18 20:10:21;;;;;;;3.70;2.50;;;24.50;57.80;;;24.76;46.38;97950.06;4871104;29;20040;-37
2021/07/18 20:12:49;;;;;;;2.95;2.42;;;24.50;57.90;;;24.72;46.62;97951.63;4871705;29;20286;-37
2021/07/18 20:15:17;;;;;;;2.97;2.22;;;24.50;58.10;;;24.69;46.93;97950.19;4872378;29;20053;-38
2021/07/18 20:17:45;;;;;;;2.80;2.38;;;24.50;58.40;;;24.64;46.64;97952.00;4873267;29;20053;-38
2021/07/18 20:20:13;;;;;;;2.53;2.10;;;24.40;57.80;;;24.57;46.57;97954.88;4872576;29;20076;-37
2021/07/18 20:22:43;;;;;;;2.60;1.92;;;24.30;58.10;;;24.54;47.02;97955.38;4872909;29;20068;-38
2021/07/18 20:25:12;;;;;;;2.85;2.08;;;24.30;58.40;;;24.48;46.63;97950.88;4854102;29;20377;-38
2021/07/18 20:27:41;;;;;;;2.63;2.22;;;24.30;58.10;;;24.45;47.11;97963.06;4870949;29;20060;-38
2021/07/18 20:30:12;;;;;;;3.03;2.20;;;24.20;58.20;;;24.40;46.58;97954.00;4855771;29;20275;-38
2021/07/18 20:32:41;;;;;;;2.60;2.40;;;24.10;57.90;;;24.35;47.11;97958.25;4855158;29;20069;-37
2021/07/18 20:35:09;;;;;;;3.60;2.28;;;24.10;58.30;;;24.32;46.94;97961.47;4856631;29;20435;-38
2021/07/18 20:37:37;;;;;;;3.35;2.50;;;24.10;58.10;;;24.29;46.80;97956.53;4869597;29;20049;-37
2021/07/18 20:40:07;;;;;;;4.45;2.20;;;24.10;58.20;;;24.27;47.08;97957.81;4872572;29;20061;-37
2021/07/18 20:42:35;;;;;;;5.85;2.85;;;24.00;58.30;;;24.23;47.38;97959.38;4872463;29;20061;-37
2021/07/18 20:45:06;;;;;;;2.80;2.20;;;24.00;58.80;;;24.17;46.85;97958.44;4874227;29;20060;-38
2021/07/18 20:47:34;;;;;;;3.05;2.40;;;24.00;58.30;;;24.15;47.09;97955.94;4872060;29;20057;-38
2021/07/18 20:50:04;;;;;;;3.05;2.25;;;24.00;58.40;;;24.12;47.21;97961.06;4872369;29;20055;-37
2021/07/18 20:52:32;;;;;;;2.80;2.10;;;23.80;58.20;;;24.07;46.87;97955.53;4853893;29;20060;-37
2021/07/18 20:55:01;;;;;;;3.00;2.70;;;23.80;58.20;;;24.03;46.90;97962.50;4871993;29;20110;-37
2021/07/18 20:57:29;;;;;;;3.17;2.75;;;23.70;58.10;;;23.98;46.94;97950.47;4872109;29;20061;-37
2021/07/18 20:59:57;;;;;;;3.15;2.45;;;23.80;58.20;;;23.96;46.90;97947.16;4871955;29;20274;-37
2021/07/18 21:02:25;;;;;;;2.88;2.20;;;23.70;58.20;;;23.91;47.16;97955.19;4870361;29;20422;-37
2021/07/18 21:04:53;;;;;;;2.25;1.83;;;23.70;58.30;;;23.87;47.21;97951.31;4870487;29;20061;-37
2021/07/18 21:07:21;;;;;;;2.50;2.13;;;23.60;58.60;;;23.83;47.49;97952.84;4870920;29;20045;-38
2021/07/18 21:09:49;;;;;;;2.85;2.55;;;23.60;58.70;;;23.81;47.53;97954.13;4872460;29;20060;-37
2021/07/18 21:12:17;;;;;;;2.88;2.40;;;23.50;59.00;;;23.78;47.54;97952.72;4870842;29;20376;-37
2021/07/18 21:14:45;;;;;;;2.95;2.20;;;23.60;58.90;;;23.76;47.53;97947.50;4871864;29;20067;-37
2021/07/18 21:17:12;;;;;;;3.22;2.70;;;23.50;58.90;;;23.74;47.82;97948.81;4871264;29;20408;-36
2021/07/18 21:19:42;;;;;;;4.40;2.70;;;23.50;59.10;;;23.73;48.18;97948.00;4870861;29;20313;-36
2021/07/18 21:22:09;;;;;;;2.97;2.25;;;23.60;59.30;;;23.70;48.06;97940.31;4853638;29;20059;-37
2021/07/18 21:24:38;;;;;;;4.63;2.33;;;23.50;59.20;;;23.68;48.10;97947.06;4871038;29;20077;-36
2021/07/18 21:27:06;;;;;;;3.42;2.80;;;23.50;59.30;;;23.66;48.04;97939.13;4855681;29;20242;-37
2021/07/18 21:29:34;;;;;;;4.65;2.45;;;23.50;59.30;;;23.62;47.88;97946.13;4853352;29;20065;-36
2021/07/18 21:32:03;;;;;;;3.88;2.63;;;23.40;59.20;;;23.58;48.04;97945.75;4870932;29;20033;-36
2021/07/18 21:34:31;;;;;;;2.80;2.50;;;23.30;59.40;;;23.54;48.01;97949.19;4869980;29;20049;-36
2021/07/18 21:36:59;;;;;;;5.35;2.95;;;23.30;60.20;;;23.49;48.11;97949.91;4870378;29;20061;-36
2021/07/18 21:39:27;;;;;;;2.70;2.25;;;23.20;59.60;;;23.45;48.11;97951.44;4871172;29;20051;-37
2021/07/18 21:41:55;;;;;;;3.85;2.33;;;23.20;59.70;;;23.42;48.19;97951.94;4872597;29;20041;-37
2021/07/18 21:44:23;;;;;;;3.25;2.63;;;23.10;59.70;;;23.38;48.44;97954.28;4869915;29;20065;-37
2021/07/18 21:46:51;;;;;;;3.38;2.63;;;23.10;59.90;;;23.32;48.54;97960.66;4870359;29;20048;-37
2021/07/18 21:49:19;;;;;;;4.55;3.15;;;23.00;60.10;;;23.29;48.67;97963.03;4870176;29;20063;-36
2021/07/18 21:51:47;;;;;;;4.15;2.58;;;23.00;60.20;;;23.26;48.76;97961.59;4871746;29;20083;-36
2021/07/18 21:54:14;;;;;;;3.70;2.50;;;23.10;60.20;;;23.25;48.98;97962.66;4871226;29;20057;-37
2021/07/18 21:56:42;;;;;;;2.97;2.28;;;23.10;60.30;;;23.24;49.44;97963.72;4871447;29;20064;-37
2021/07/18 21:59:10;;;;;;;4.82;2.90;;;23.10;60.90;;;23.22;49.27;97962.31;4870593;29;20258;-36
